createdAt,value
2023-07-25T00:02:33.577Z,2.33
2023-07-25T00:07:37.052Z,5.35
2023-07-25T00:12:40.963Z,3.33
2023-07-25T00:17:45.741Z,2.70
2023-07-25T00:22:49.140Z,2.85
2023-07-25T00:27:52.569Z,3.25
2023-07-25T00:32:57.404Z,3.15
2023-07-25T00:38:00.963Z,4.53
2023-07-25T00:43:04.355Z,3.67
2023-07-25T00:48:09.343Z,3.80
2023-07-25T00:53:14.439Z,2.65
2023-07-25T00:58:19.813Z,3.25
2023-07-25T01:03:24.667Z,2.83
2023-07-25T01:08:28.126Z,6.38
2023-07-25T01:13:31.606Z,2.55
2023-07-25T01:18:36.621Z,2.92
2023-07-25T01:23:40.948Z,4.22
2023-07-25T01:28:47.023Z,2.55
2023-07-25T01:33:50.492Z,2.50
2023-07-25T01:39:12.432Z,2.72
2023-07-25T01:44:17.227Z,2.42
2023-07-25T01:49:20.684Z,3.75
2023-07-25T01:54:24.441Z,3.88
2023-07-25T01:59:30.559Z,3.08
2023-07-25T02:04:33.992Z,3.50
2023-07-25T02:09:55.636Z,3.58
2023-07-25T02:15:00.565Z,2.75
2023-07-25T02:20:04.848Z,2.92
2023-07-25T02:25:09.098Z,3.20
2023-07-25T02:30:14.210Z,2.85
2023-07-25T02:35:17.833Z,2.35
2023-07-25T02:40:21.232Z,2.35
2023-07-25T02:45:26.057Z,3.90
2023-07-25T02:50:29.800Z,4.82
2023-07-25T02:55:33.235Z,2.88
2023-07-25T03:00:38.030Z,5.32
2023-07-25T03:05:41.505Z,4.10
2023-07-25T03:10:45.234Z,3.63
2023-07-25T03:15:50.144Z,2.20
2023-07-25T03:20:53.579Z,2.35
2023-07-25T03:25:57.019Z,4.40
2023-07-25T03:31:01.838Z,4.20
2023-07-25T03:36:06.073Z,2.40
2023-07-25T03:41:09.544Z,2.95
2023-07-25T03:46:14.587Z,8.38
2023-07-25T03:51:18.048Z,5.38
2023-07-25T03:56:21.492Z,3.25
2023-07-25T04:01:26.264Z,3.17
2023-07-25T04:06:29.909Z,2.45
2023-07-25T04:11:53.072Z,6.60
2023-07-25T04:16:57.904Z,3.22
2023-07-25T04:22:01.314Z,4.32
2023-07-25T04:27:05.118Z,4.30
2023-07-25T04:32:10.456Z,3.40
2023-07-25T04:37:13.840Z,3.53
2023-07-25T04:42:17.299Z,2.25
2023-07-25T04:47:22.132Z,3.85
2023-07-25T04:52:25.762Z,2.50
2023-07-25T04:57:29.497Z,7.65
2023-07-25T05:02:34.382Z,3.42
2023-07-25T05:07:37.863Z,7.00
2023-07-25T05:12:41.781Z,5.60
2023-07-25T05:17:46.987Z,3.03
2023-07-25T05:22:50.477Z,3.15
2023-07-25T05:27:53.913Z,2.42
2023-07-25T05:32:58.809Z,3.28
2023-07-25T05:38:04.059Z,5.28
2023-07-25T05:43:07.582Z,2.67
2023-07-25T05:48:12.476Z,5.90
2023-07-25T05:53:15.910Z,4.13
2023-07-25T05:58:19.827Z,3.30
2023-07-25T06:03:24.650Z,4.18
2023-07-25T06:08:28.354Z,2.92
2023-07-25T06:13:34.645Z,3.00
2023-07-25T06:18:39.473Z,4.97
2023-07-25T06:23:42.963Z,2.40
2023-07-25T06:28:46.482Z,2.70
2023-07-25T06:33:51.196Z,3.25
2023-07-25T06:38:54.676Z,5.15
2023-07-25T06:43:58.153Z,2.83
2023-07-25T06:49:03.189Z,3.42
2023-07-25T06:54:06.615Z,2.90
2023-07-25T06:59:10.151Z,3.40
2023-07-25T07:04:14.930Z,3.53
2023-07-25T07:09:18.464Z,3.25
2023-07-25T07:14:21.912Z,2.55
2023-07-25T07:19:26.722Z,2.42
2023-07-25T07:24:30.438Z,2.53
2023-07-25T07:29:33.959Z,2.45
2023-07-25T07:34:38.864Z,4.55
2023-07-25T07:39:42.538Z,1.83
2023-07-25T07:44:46.159Z,2.90
2023-07-25T07:49:51.071Z,2.53
2023-07-25T07:54:54.728Z,3.88
2023-07-25T07:59:58.112Z,2.20
2023-07-25T08:05:02.891Z,2.13
2023-07-25T08:10:07.321Z,1.95
2023-07-25T08:15:11.119Z,1.80
2023-07-25T08:20:16.451Z,2.22
2023-07-25T08:25:19.900Z,2.03
2023-07-25T08:30:23.629Z,2.75
2023-07-25T08:35:28.553Z,2.08
2023-07-25T08:40:32.036Z,2.70
2023-07-25T08:45:36.397Z,2.45
2023-07-25T08:50:44.517Z,3.53
2023-07-25T08:56:06.988Z,3.50
2023-07-25T09:01:11.378Z,1.92
2023-07-25T09:06:16.940Z,2.30
2023-07-25T09:11:22.431Z,2.80
2023-07-25T09:16:26.317Z,1.92
2023-07-25T09:21:31.465Z,2.25
2023-07-25T09:26:40.321Z,2.58
2023-07-25T09:31:45.124Z,3.67
2023-07-25T09:36:50.290Z,2.83
2023-07-25T09:41:53.727Z,2.88
2023-07-25T09:46:59.254Z,1.75
2023-07-25T09:52:06.157Z,4.00
2023-07-25T09:57:10.380Z,2.45
2023-07-25T10:02:14.962Z,5.32
2023-07-25T10:07:20.433Z,3.20
2023-07-25T10:12:24.586Z,2.65
2023-07-25T10:17:28.480Z,3.30
2023-07-25T10:22:38.403Z,2.42
2023-07-25T10:27:41.948Z,2.03
2023-07-25T10:32:47.363Z,1.60
2023-07-25T10:37:54.035Z,2.67
2023-07-25T10:43:07.490Z,3.58
2023-07-25T10:48:30.035Z,1.60
2023-07-25T10:53:36.225Z,2.30
2023-07-25T10:58:41.217Z,2.72
2023-07-25T11:03:45.312Z,1.02
2023-07-25T11:08:50.304Z,0.70
2023-07-25T11:13:53.927Z,1.65
2023-07-25T11:18:58.198Z,1.70
2023-07-25T11:24:06.515Z,0.50
2023-07-25T11:29:11.265Z,0.70
2023-07-25T11:34:16.886Z,1.33
2023-07-25T11:39:21.761Z,1.55
2023-07-25T11:44:26.085Z,1.73
2023-07-25T11:49:46.820Z,1.48
2023-07-25T11:54:53.663Z,0.63
2023-07-25T11:59:58.092Z,1.35
2023-07-25T12:05:01.624Z,1.25
2023-07-25T12:10:07.204Z,1.75
2023-07-25T12:15:11.163Z,1.63
2023-07-25T12:20:16.398Z,1.02
2023-07-25T12:25:21.264Z,1.10
2023-07-25T12:30:24.881Z,1.13
2023-07-25T12:35:28.893Z,1.42
2023-07-25T12:40:33.794Z,0.55
2023-07-25T12:45:37.362Z,1.05
2023-07-25T12:50:41.406Z,1.00
2023-07-25T12:55:46.327Z,1.05
2023-07-25T13:00:50.031Z,1.38
2023-07-25T13:05:53.979Z,2.67
2023-07-25T13:10:58.827Z,1.02
2023-07-25T13:16:02.425Z,1.60
2023-07-25T13:21:05.936Z,1.20
2023-07-25T13:26:10.880Z,0.95
2023-07-25T13:31:14.364Z,0.73
2023-07-25T13:36:17.941Z,1.25
2023-07-25T13:41:22.734Z,3.08
2023-07-25T13:46:26.368Z,2.03
2023-07-25T13:51:30.002Z,1.45
2023-07-25T13:56:35.699Z,1.83
2023-07-25T14:01:39.420Z,2.10
2023-07-25T14:06:43.169Z,1.73
2023-07-25T14:11:51.228Z,2.03
2023-07-25T14:16:54.712Z,2.63
2023-07-25T14:21:58.417Z,2.00
2023-07-25T14:27:03.571Z,1.77
2023-07-25T14:32:08.194Z,2.00
2023-07-25T14:37:11.757Z,2.00
2023-07-25T14:42:16.617Z,2.78
2023-07-25T14:47:20.422Z,1.80
2023-07-25T14:52:24.029Z,1.88
2023-07-25T14:57:28.982Z,2.15
2023-07-25T15:02:32.570Z,1.58
2023-07-25T15:07:36.560Z,1.95
2023-07-25T15:12:41.761Z,2.08
2023-07-25T15:17:45.335Z,1.45
2023-07-25T15:22:48.961Z,2.00
2023-07-25T15:27:53.794Z,1.75
2023-07-25T15:32:57.330Z,2.35
2023-07-25T15:38:00.712Z,1.85
2023-07-25T15:43:09.667Z,1.73
2023-07-25T15:48:14.230Z,1.90
2023-07-25T15:53:17.666Z,2.40
2023-07-25T15:58:22.515Z,2.60
2023-07-25T16:03:25.989Z,2.50
2023-07-25T16:08:29.463Z,3.33
2023-07-25T16:13:38.784Z,1.98
2023-07-25T16:18:42.409Z,1.73
2023-07-25T16:23:45.849Z,3.95
2023-07-25T16:28:52.578Z,2.47
2023-07-25T16:33:55.972Z,2.05
2023-07-25T16:38:59.338Z,2.33
2023-07-25T16:44:04.745Z,1.90
2023-07-25T16:49:08.312Z,2.35
2023-07-25T16:54:11.793Z,1.95
2023-07-25T16:59:16.671Z,2.05
2023-07-25T17:04:20.165Z,1.58
2023-07-25T17:09:23.597Z,2.75
2023-07-25T17:14:28.345Z,2.60
2023-07-25T17:19:31.774Z,2.88
2023-07-25T17:24:35.914Z,2.38
2023-07-25T17:29:40.786Z,2.40
2023-07-25T17:34:44.172Z,2.72
2023-07-25T17:39:48.921Z,3.05
2023-07-25T17:44:53.742Z,2.03
2023-07-25T17:49:57.182Z,4.93
2023-07-25T17:55:00.593Z,2.72
2023-07-25T18:00:06.439Z,3.97
2023-07-25T18:05:15.385Z,2.58
2023-07-25T18:10:18.811Z,3.10
2023-07-25T18:15:23.732Z,2.50
2023-07-25T18:20:27.282Z,3.15
2023-07-25T18:25:30.921Z,3.10
2023-07-25T18:30:37.112Z,2.90
2023-07-25T18:35:40.616Z,2.47
2023-07-25T18:40:44.149Z,4.55
2023-07-25T18:45:49.026Z,2.42
2023-07-25T18:50:53.317Z,3.75
2023-07-25T18:55:56.758Z,3.13
2023-07-25T19:01:01.703Z,2.90
2023-07-25T19:06:05.279Z,3.83
2023-07-25T19:11:08.829Z,3.53
2023-07-25T19:16:13.963Z,5.45
2023-07-25T19:21:17.724Z,3.25
2023-07-25T19:26:21.291Z,2.90
2023-07-25T19:31:26.324Z,2.72
2023-07-25T19:36:30.178Z,2.75
2023-07-25T19:41:36.408Z,4.70
2023-07-25T19:46:41.307Z,3.72
2023-07-25T19:51:45.404Z,3.17
2023-07-25T19:56:49.155Z,3.65
2023-07-25T20:01:53.965Z,3.58
2023-07-25T20:06:57.467Z,3.58
2023-07-25T20:12:00.860Z,6.13
2023-07-25T20:17:06.022Z,4.38
2023-07-25T20:22:09.526Z,4.25
2023-07-25T20:27:13.096Z,4.18
2023-07-25T20:32:18.084Z,4.82
2023-07-25T20:37:21.594Z,4.43
2023-07-25T20:42:25.150Z,6.88
2023-07-25T20:47:30.213Z,5.85
2023-07-25T20:52:34.064Z,6.43
2023-07-25T20:57:37.494Z,5.63
2023-07-25T21:02:42.555Z,5.68
2023-07-25T21:07:46.334Z,7.93
2023-07-25T21:12:49.803Z,5.70
2023-07-25T21:18:06.609Z,5.18
2023-07-25T21:23:15.064Z,5.38
2023-07-25T21:28:18.573Z,6.10
2023-07-25T21:33:26.813Z,5.78
2023-07-25T21:38:30.694Z,5.97
2023-07-25T21:43:34.294Z,5.07
2023-07-25T21:48:39.256Z,6.63
2023-07-25T21:53:44.222Z,6.13
2023-07-25T21:58:47.869Z,5.00
2023-07-25T22:03:52.796Z,5.43
2023-07-25T22:08:56.290Z,6.20
2023-07-25T22:13:59.841Z,5.50
2023-07-25T22:19:04.664Z,5.85
2023-07-25T22:24:08.114Z,6.30
2023-07-25T22:29:11.665Z,11.57
2023-07-25T22:34:16.487Z,8.52
2023-07-25T22:39:20.082Z,8.13
2023-07-25T22:44:23.714Z,10.38
2023-07-25T22:49:28.755Z,8.45
2023-07-25T22:54:32.211Z,7.45
2023-07-25T22:59:35.821Z,9.75
2023-07-25T23:04:40.765Z,8.63
2023-07-25T23:09:44.269Z,8.95
2023-07-25T23:14:47.969Z,7.60
2023-07-25T23:19:53.008Z,9.73
2023-07-25T23:24:56.985Z,9.50
2023-07-25T23:30:00.836Z,10.57
2023-07-25T23:35:06.231Z,12.25
2023-07-25T23:40:10.515Z,11.10
2023-07-25T23:45:14.148Z,12.73
2023-07-25T23:50:19.183Z,12.95
2023-07-25T23:55:22.695Z,12.32
